createdAt,value
2022-09-22T00:01:06.999Z,101215.50
2022-09-22T00:03:57.217Z,101209.31
2022-09-22T00:06:48.650Z,101214.00
2022-09-22T00:09:37.373Z,101197.63
2022-09-22T00:12:25.869Z,101198.63
2022-09-22T00:15:15.910Z,101196.25
2022-09-22T00:18:04.439Z,101196.97
2022-09-22T00:20:53.072Z,101195.78
2022-09-22T00:23:42.572Z,101189.31
2022-09-22T00:26:31.238Z,101191.63
2022-09-22T00:29:19.835Z,101183.34
2022-09-22T00:32:09.882Z,101181.31
2022-09-22T00:34:58.363Z,101183.69
2022-09-22T00:37:46.860Z,101179.50
2022-09-22T00:40:36.086Z,101181.03
2022-09-22T00:43:26.317Z,101175.03
2022-09-22T00:46:19.570Z,101178.66
2022-09-22T00:49:10.128Z,101178.34
2022-09-22T00:51:58.787Z,101175.97
2022-09-22T00:54:47.437Z,101172.38
2022-09-22T00:57:37.397Z,101169.69
2022-09-22T01:00:25.873Z,101175.03
2022-09-22T01:03:17.812Z,101170.84
2022-09-22T01:06:09.619Z,101174.53
2022-09-22T01:08:58.661Z,101176.34
2022-09-22T01:11:47.146Z,101171.00
2022-09-22T01:14:47.711Z,101172.88
2022-09-22T01:17:46.061Z,101166.31
2022-09-22T01:20:59.896Z,101170.38
2022-09-22T01:24:40.139Z,101172.38
2022-09-22T01:27:56.906Z,101173.19
2022-09-22T01:30:48.182Z,101175.06
2022-09-22T01:33:43.565Z,101174.75
2022-09-22T01:36:37.235Z,101173.75
2022-09-22T01:39:30.145Z,101172.44
2022-09-22T01:42:24.539Z,101174.09
2022-09-22T01:45:16.214Z,101172.28
2022-09-22T01:48:10.069Z,101164.44
2022-09-22T01:51:01.584Z,101168.13
2022-09-22T01:53:53.091Z,101168.13
2022-09-22T01:56:43.984Z,101163.63
2022-09-22T01:59:34.932Z,101168.13
2022-09-22T02:02:25.641Z,101165.44
2022-09-22T02:05:20.088Z,101162.78
2022-09-22T02:08:11.766Z,101162.78
2022-09-22T02:11:04.218Z,101164.63
2022-09-22T02:13:52.907Z,101162.78
2022-09-22T02:16:41.364Z,101157.44
2022-09-22T02:19:32.092Z,101155.41
2022-09-22T02:22:22.665Z,101155.41
2022-09-22T02:25:12.942Z,101155.41
2022-09-22T02:28:01.484Z,101161.59
2022-09-22T02:31:17.450Z,101160.75
2022-09-22T02:34:00.655Z,101154.59
2022-09-22T02:36:53.670Z,101150.91
2022-09-22T02:39:48.360Z,101152.75
2022-09-22T02:42:41.428Z,101153.75
2022-09-22T02:45:32.974Z,101151.28
2022-09-22T02:48:23.367Z,101153.75
2022-09-22T02:51:12.074Z,101154.75
2022-09-22T02:54:01.758Z,101155.41
2022-09-22T02:56:51.580Z,101152.75
2022-09-22T02:59:39.996Z,101150.81
2022-09-22T03:02:28.444Z,101144.63
2022-09-22T03:05:17.012Z,101150.81
2022-09-22T03:08:05.542Z,101141.13
2022-09-22T03:10:53.947Z,101145.47
2022-09-22T03:13:43.698Z,101152.47
2022-09-22T03:16:32.144Z,101143.44
2022-09-22T03:19:20.615Z,101147.50
2022-09-22T03:22:09.312Z,101140.94
2022-09-22T03:24:57.763Z,101144.63
2022-09-22T03:27:48.298Z,101146.09
2022-09-22T03:30:40.284Z,101134.78
2022-09-22T03:33:28.779Z,101135.97
2022-09-22T03:36:17.232Z,101144.44
2022-09-22T03:39:05.811Z,101145.09
2022-09-22T03:41:54.262Z,101141.13
2022-09-22T03:44:42.683Z,101135.47
2022-09-22T03:47:32.734Z,101138.81
2022-09-22T03:50:21.238Z,101133.81
2022-09-22T03:53:09.730Z,101144.34
2022-09-22T03:56:07.020Z,101133.81
2022-09-22T03:58:55.538Z,101139.16
2022-09-22T04:01:44.212Z,101139.16
2022-09-22T04:04:34.023Z,101131.34
2022-09-22T04:07:22.476Z,101135.47
2022-09-22T04:10:11.163Z,101137.50
2022-09-22T04:12:59.569Z,101131.34
2022-09-22T04:15:48.087Z,101139.53
2022-09-22T04:18:40.164Z,101137.63
2022-09-22T04:21:29.997Z,101139.81
2022-09-22T04:24:18.476Z,101138.81
2022-09-22T04:27:22.580Z,101135.16
2022-09-22T04:30:12.592Z,101129.81
2022-09-22T04:33:01.100Z,101134.31
2022-09-22T04:35:49.739Z,101142.47
2022-09-22T04:38:39.554Z,101135.97
2022-09-22T04:41:28.451Z,101134.41
2022-09-22T04:44:16.898Z,101132.75
2022-09-22T04:47:05.782Z,101136.06
2022-09-22T04:49:54.614Z,101140.78
2022-09-22T04:52:46.523Z,101144.72
2022-09-22T04:55:36.712Z,101151.66
2022-09-22T04:58:25.247Z,101159.22
2022-09-22T05:01:13.747Z,101152.53
2022-09-22T05:04:02.526Z,101159.31
2022-09-22T05:06:51.321Z,101162.19
2022-09-22T05:09:39.801Z,101161.81
2022-09-22T05:12:29.654Z,101158.28
2022-09-22T05:15:18.297Z,101163.63
2022-09-22T05:18:07.234Z,101168.59
2022-09-22T05:20:55.690Z,101169.25
2022-09-22T05:23:44.150Z,101176.44
2022-09-22T05:26:32.559Z,101170.84
2022-09-22T05:29:25.856Z,101171.09
2022-09-22T05:32:16.316Z,101175.31
2022-09-22T05:35:05.019Z,101167.94
2022-09-22T05:37:54.373Z,101170.66
2022-09-22T05:40:42.830Z,101185.75
2022-09-22T05:43:31.305Z,101175.75
2022-09-22T05:46:21.129Z,101180.81
2022-09-22T05:49:09.702Z,101182.84
2022-09-22T05:51:58.944Z,101182.00
2022-09-22T05:54:47.496Z,101181.19
2022-09-22T05:57:36.144Z,101182.34
2022-09-22T06:00:24.594Z,101181.50
2022-09-22T06:03:17.584Z,101176.53
2022-09-22T06:06:06.202Z,101182.22
2022-09-22T06:08:54.731Z,101178.56
2022-09-22T06:11:44.317Z,101175.22
2022-09-22T06:14:32.786Z,101184.91
2022-09-22T06:17:21.180Z,101185.91
2022-09-22T06:20:11.492Z,101191.25
2022-09-22T06:23:00.006Z,101190.41
2022-09-22T06:25:48.510Z,101189.59
2022-09-22T06:28:37.034Z,101196.59
2022-09-22T06:31:25.852Z,101188.94
2022-09-22T06:34:14.421Z,101191.59
2022-09-22T06:37:06.307Z,101192.41
2022-09-22T06:39:54.735Z,101193.25
2022-09-22T06:42:43.445Z,101187.94
2022-09-22T06:45:33.120Z,101184.06
2022-09-22T06:48:23.830Z,101188.56
2022-09-22T06:51:14.099Z,101187.94
2022-09-22T06:54:05.440Z,101179.91
2022-09-22T06:56:55.109Z,101180.72
2022-09-22T06:59:44.594Z,101192.25
2022-09-22T07:02:33.005Z,101190.41
2022-09-22T07:05:21.459Z,101184.25
2022-09-22T07:08:09.960Z,101182.22
2022-09-22T07:11:02.301Z,101178.56
2022-09-22T07:13:53.366Z,101183.72
2022-09-22T07:16:44.345Z,101188.88
2022-09-22T07:19:36.211Z,101188.69
2022-09-22T07:22:24.650Z,101183.19
2022-09-22T07:25:13.232Z,101185.03
2022-09-22T07:28:05.369Z,101188.16
2022-09-22T07:30:53.787Z,101185.50
2022-09-22T07:33:44.550Z,101187.16
2022-09-22T07:36:34.275Z,101189.00
2022-09-22T07:39:25.085Z,101188.16
2022-09-22T07:42:14.720Z,101189.84
2022-09-22T07:45:16.468Z,101180.44
2022-09-22T07:48:24.432Z,101185.78
2022-09-22T07:51:16.919Z,101188.09
2022-09-22T07:54:07.393Z,101188.94
2022-09-22T07:56:58.139Z,101187.13
2022-09-22T07:59:46.951Z,101187.94
2022-09-22T08:02:36.724Z,101189.59
2022-09-22T08:05:26.807Z,101177.91
2022-09-22T08:08:15.219Z,101183.06
2022-09-22T08:11:08.286Z,101187.56
2022-09-22T08:13:58.380Z,101190.06
2022-09-22T08:16:47.169Z,101190.06
2022-09-22T08:19:37.511Z,101190.06
2022-09-22T08:22:26.046Z,101186.38
2022-09-22T08:25:14.805Z,101189.69
2022-09-22T08:28:04.489Z,101191.72
2022-09-22T08:30:52.978Z,101193.38
2022-09-22T08:33:42.521Z,101193.22
2022-09-22T08:36:32.338Z,101186.03
2022-09-22T08:39:20.789Z,101191.38
2022-09-22T08:42:13.874Z,101187.69
2022-09-22T08:45:06.855Z,101191.06
2022-09-22T08:48:15.037Z,101189.34
2022-09-22T08:51:24.726Z,101187.38
2022-09-22T08:54:15.311Z,101183.69
2022-09-22T08:57:21.466Z,101186.38
2022-09-22T09:00:14.588Z,101182.03
2022-09-22T09:03:16.348Z,101187.38
2022-09-22T09:06:12.155Z,101190.03
2022-09-22T09:09:20.624Z,101188.19
2022-09-22T09:12:21.924Z,101186.38
2022-09-22T09:15:33.975Z,101184.72
2022-09-22T09:18:24.914Z,101183.69
2022-09-22T09:21:16.301Z,101184.72
2022-09-22T09:27:21.726Z,101186.16
2022-09-22T09:30:14.384Z,101190.69
2022-09-22T09:33:04.675Z,101180.81
2022-09-22T09:35:53.663Z,101187.19
2022-09-22T09:38:46.458Z,101185.34
2022-09-22T09:41:39.497Z,101182.69
2022-09-22T09:44:33.471Z,101181.66
2022-09-22T09:47:30.185Z,101182.47
2022-09-22T09:50:19.993Z,101179.66
2022-09-22T09:53:18.952Z,101180.50
2022-09-22T09:56:22.936Z,101177.63
2022-09-22T09:59:32.063Z,101173.59
2022-09-22T10:02:23.945Z,101169.91
2022-09-22T10:05:22.412Z,101173.25
2022-09-22T10:08:20.130Z,101165.03
2022-09-22T10:11:09.746Z,101159.34
2022-09-22T10:13:59.043Z,101160.16
2022-09-22T10:16:53.043Z,101153.81
2022-09-22T10:19:42.788Z,101158.13
2022-09-22T10:22:31.305Z,101150.78
2022-09-22T10:25:23.558Z,101157.78
2022-09-22T10:28:16.340Z,101156.78
2022-09-22T10:31:04.894Z,101148.75
2022-09-22T10:33:56.922Z,101152.06
2022-09-22T10:36:49.377Z,101146.75
2022-09-22T10:39:41.928Z,101138.72
2022-09-22T10:42:34.311Z,101141.41
2022-09-22T10:45:32.082Z,101144.22
2022-09-22T10:48:26.213Z,101148.75
2022-09-22T10:51:18.250Z,101141.75
2022-09-22T10:54:20.102Z,101145.44
2022-09-22T10:57:17.870Z,101140.09
2022-09-22T11:00:12.465Z,101142.94
2022-09-22T11:03:23.997Z,101141.28
2022-09-22T11:06:42.419Z,101140.44
2022-09-22T11:09:54.976Z,101137.97
2022-09-22T11:12:49.995Z,101131.78
2022-09-22T11:15:46.375Z,101126.81
2022-09-22T11:18:45.130Z,101121.47
2022-09-22T11:21:44.044Z,101129.50
2022-09-22T11:24:46.578Z,101130.31
2022-09-22T11:27:43.860Z,101121.09
2022-09-22T11:30:35.888Z,101124.78
2022-09-22T11:33:37.253Z,101125.44
2022-09-22T11:36:35.745Z,101114.75
2022-09-22T11:39:37.977Z,101115.38
2022-09-22T11:42:31.909Z,101106.38
2022-09-22T11:45:34.027Z,101113.41
2022-09-22T11:48:34.443Z,101107.03
2022-09-22T11:51:32.480Z,101099.03
2022-09-22T11:54:32.003Z,101100.69
2022-09-22T11:57:24.852Z,101090.63
2022-09-22T12:00:16.400Z,101089.78
2022-09-22T12:03:09.526Z,101090.47
2022-09-22T12:06:00.800Z,101088.59
2022-09-22T12:11:47.664Z,101087.59
2022-09-22T12:14:38.356Z,101083.09
2022-09-22T12:17:35.192Z,101079.19
2022-09-22T12:20:37.075Z,101083.56
2022-09-22T12:23:36.951Z,101074.69
2022-09-22T12:26:29.250Z,101075.72
2022-09-22T12:29:28.563Z,101079.88
2022-09-22T12:32:24.986Z,101074.31
2022-09-22T12:35:19.362Z,101074.97
2022-09-22T12:38:07.915Z,101063.47
2022-09-22T12:41:03.493Z,101060.59
2022-09-22T12:43:52.179Z,101058.59
2022-09-22T12:46:43.279Z,101066.41
2022-09-22T12:49:33.198Z,101064.38
2022-09-22T12:52:38.856Z,101059.03
2022-09-22T12:55:38.425Z,101059.41
2022-09-22T12:58:46.049Z,101066.06
2022-09-22T13:01:35.902Z,101059.03
2022-09-22T13:04:25.442Z,101053.69
2022-09-22T13:07:35.130Z,101056.19
2022-09-22T13:10:42.811Z,101050.47
2022-09-22T13:13:39.921Z,101046.78
2022-09-22T13:16:36.414Z,101049.66
2022-09-22T13:19:24.895Z,101048.28
2022-09-22T13:22:17.738Z,101049.63
2022-09-22T13:25:26.867Z,101048.09
2022-09-22T13:28:18.091Z,101048.72
2022-09-22T13:31:17.162Z,101050.38
2022-09-22T13:34:22.802Z,101042.63
2022-09-22T13:37:13.950Z,101040.34
2022-09-22T13:40:02.690Z,101041.63
2022-09-22T13:42:53.606Z,101030.66
2022-09-22T13:45:42.048Z,101036.00
2022-09-22T13:48:34.135Z,101036.47
2022-09-22T13:51:24.962Z,101033.59
2022-09-22T13:54:16.563Z,101025.69
2022-09-22T13:57:06.722Z,101021.16
2022-09-22T13:59:58.335Z,101021.38
2022-09-22T14:02:46.963Z,101021.91
2022-09-22T14:05:36.846Z,101018.25
2022-09-22T14:08:29.513Z,101013.00
2022-09-22T14:11:20.680Z,101010.97
2022-09-22T14:14:23.216Z,101013.16
2022-09-22T14:17:17.640Z,101011.34
2022-09-22T14:20:07.662Z,101006.34
2022-09-22T14:22:56.469Z,101007.66
2022-09-22T14:25:45.377Z,101011.97
2022-09-22T14:28:37.094Z,101009.47
2022-09-22T14:31:27.920Z,101010.59
2022-09-22T14:34:22.798Z,101015.91
2022-09-22T14:37:18.358Z,101010.59
2022-09-22T14:40:15.475Z,101007.19
2022-09-22T14:43:08.893Z,101005.97
2022-09-22T14:46:06.058Z,101005.72
2022-09-22T14:48:57.449Z,101003.03
2022-09-22T14:51:49.242Z,100999.97
2022-09-22T14:54:39.018Z,100999.59
2022-09-22T14:57:28.592Z,100994.53
2022-09-22T15:00:36.352Z,100988.06
2022-09-22T15:03:28.086Z,100991.41
2022-09-22T15:06:16.684Z,100986.88
2022-09-22T15:09:07.167Z,100983.16
2022-09-22T15:11:57.857Z,100978.28
2022-09-22T15:14:47.157Z,100987.31
2022-09-22T15:17:55.872Z,100992.31
2022-09-22T15:20:47.013Z,100984.75
2022-09-22T15:23:41.078Z,100979.59
2022-09-22T15:26:32.890Z,100980.13
2022-09-22T15:29:21.422Z,100978.28
2022-09-22T15:32:10.117Z,100983.28
2022-09-22T15:34:58.967Z,100983.63
2022-09-22T15:37:49.670Z,100978.66
2022-09-22T15:40:38.154Z,100985.66
2022-09-22T15:43:30.942Z,100983.56
2022-09-22T15:46:28.227Z,100978.66
2022-09-22T15:49:20.826Z,100988.06
2022-09-22T15:52:10.663Z,100993.78
2022-09-22T15:55:02.031Z,100988.72
2022-09-22T15:57:52.731Z,100982.34
2022-09-22T16:00:42.612Z,100985.97
2022-09-22T16:03:31.431Z,100981.44
2022-09-22T16:06:21.279Z,100978.50
2022-09-22T16:09:11.624Z,100975.56
2022-09-22T16:12:00.163Z,100971.94
2022-09-22T16:14:52.069Z,100977.41
2022-09-22T16:17:42.925Z,100976.41
2022-09-22T16:20:33.743Z,100966.00
2022-09-22T16:23:22.389Z,100974.19
2022-09-22T16:26:10.974Z,100973.66
2022-09-22T16:29:00.012Z,100965.63
2022-09-22T16:31:48.982Z,100971.34
2022-09-22T16:34:38.898Z,100974.56
2022-09-22T16:37:29.177Z,100967.94
2022-09-22T16:40:19.929Z,100960.47
2022-09-22T16:43:09.383Z,100968.69
2022-09-22T16:46:15.827Z,100971.53
2022-09-22T16:49:06.041Z,100966.56
2022-09-22T16:51:56.274Z,100967.84
2022-09-22T16:54:44.724Z,100969.06
2022-09-22T16:57:34.366Z,100971.28
2022-09-22T17:00:22.805Z,100965.56
2022-09-22T17:03:11.231Z,100966.56
2022-09-22T17:06:05.407Z,100971.91
2022-09-22T17:08:57.050Z,100975.22
2022-09-22T17:11:47.467Z,100971.53
2022-09-22T17:14:37.022Z,100972.81
2022-09-22T17:17:25.597Z,100980.66
2022-09-22T17:20:13.999Z,100976.78
2022-09-22T17:23:02.543Z,100972.53
2022-09-22T17:25:52.859Z,100973.34
2022-09-22T17:28:41.385Z,100977.88
2022-09-22T17:31:31.116Z,100975.47
2022-09-22T17:34:19.704Z,100976.69
2022-09-22T17:37:14.098Z,100978.06
2022-09-22T17:40:02.990Z,100973.75
2022-09-22T17:42:57.199Z,100979.06
2022-09-22T17:45:46.141Z,100977.44
2022-09-22T17:48:59.085Z,100974.38
2022-09-22T17:52:06.738Z,100977.88
2022-09-22T17:55:11.750Z,100976.03
2022-09-22T17:58:01.603Z,100974.66
2022-09-22T18:00:51.667Z,100976.31
2022-09-22T18:03:40.125Z,100974.66
2022-09-22T18:06:28.562Z,100978.69
2022-09-22T18:09:17.912Z,100977.03
2022-09-22T18:12:10.048Z,100984.41
2022-09-22T18:15:03.880Z,100982.75
2022-09-22T18:17:55.566Z,100989.38
2022-09-22T18:20:44.019Z,100996.75
2022-09-22T18:23:32.535Z,100995.94
2022-09-22T18:26:21.176Z,100996.13
2022-09-22T18:29:10.558Z,100995.09
2022-09-22T18:32:00.423Z,101002.47
2022-09-22T18:34:51.271Z,100996.13
2022-09-22T18:37:39.732Z,100999.63
2022-09-22T18:40:30.074Z,100998.78
2022-09-22T18:43:18.636Z,100997.13
2022-09-22T18:46:07.364Z,100996.28
2022-09-22T18:49:04.879Z,100998.16
2022-09-22T18:51:56.497Z,101001.84
2022-09-22T18:54:44.969Z,101000.81
2022-09-22T18:57:33.423Z,101000.63
2022-09-22T19:00:22.189Z,100997.13
2022-09-22T19:03:10.965Z,100999.81
2022-09-22T19:06:00.834Z,101008.63
2022-09-22T19:08:49.337Z,101002.47
2022-09-22T19:11:38.317Z,101004.50
2022-09-22T19:14:27.074Z,101003.66
2022-09-22T19:17:17.239Z,100990.13
2022-09-22T19:20:07.097Z,100998.16
2022-09-22T19:22:57.558Z,101000.28
2022-09-22T19:25:46.470Z,101000.75
2022-09-22T19:28:35.507Z,101005.41
2022-09-22T19:31:23.908Z,100996.38
2022-09-22T19:34:13.542Z,100994.72
2022-09-22T19:37:01.999Z,101001.38
2022-09-22T19:39:51.978Z,100995.66
2022-09-22T19:42:40.652Z,100998.97
2022-09-22T19:45:29.363Z,100996.94
2022-09-22T19:48:17.756Z,101001.94
2022-09-22T19:51:06.813Z,100996.19
2022-09-22T19:53:55.202Z,101000.16
2022-09-22T19:56:44.957Z,101012.03
2022-09-22T19:59:33.499Z,101006.88
2022-09-22T20:02:21.863Z,101001.44
2022-09-22T20:05:19.423Z,101003.75
2022-09-22T20:08:15.636Z,101000.53
2022-09-22T20:11:22.995Z,101007.28
2022-09-22T20:14:25.304Z,101004.78
2022-09-22T20:17:13.935Z,101005.97
2022-09-22T20:20:05.770Z,100995.75
2022-09-22T20:22:59.323Z,101002.09
2022-09-22T20:25:48.895Z,100997.53
2022-09-22T20:28:41.351Z,100994.19
2022-09-22T20:31:32.655Z,101000.34
2022-09-22T20:34:21.257Z,101001.84
2022-09-22T20:37:10.768Z,101001.22
2022-09-22T20:39:59.397Z,101005.16
2022-09-22T20:42:48.621Z,100996.13
2022-09-22T20:45:37.239Z,101001.84
2022-09-22T20:48:27.467Z,101002.03
2022-09-22T20:51:16.145Z,101001.94
2022-09-22T20:54:04.658Z,101008.56
2022-09-22T20:56:55.694Z,101005.63
2022-09-22T20:59:46.173Z,100996.13
2022-09-22T21:02:35.024Z,100999.53
2022-09-22T21:05:25.104Z,100997.69
2022-09-22T21:08:31.184Z,100994.09
2022-09-22T21:11:21.465Z,100997.34
2022-09-22T21:14:11.234Z,100994.38
2022-09-22T21:17:02.261Z,100987.00
2022-09-22T21:19:50.872Z,100993.56
2022-09-22T21:22:40.988Z,100992.34
2022-09-22T21:25:30.842Z,100994.09
2022-09-22T21:28:19.466Z,100992.75
2022-09-22T21:31:14.648Z,100990.41
2022-09-22T21:34:03.386Z,100991.59
2022-09-22T21:36:54.051Z,100989.19
2022-09-22T21:39:44.014Z,100994.53
2022-09-22T21:42:33.870Z,100990.84
2022-09-22T21:45:22.454Z,100991.94
2022-09-22T21:48:11.241Z,100996.09
2022-09-22T21:51:01.395Z,100989.91
2022-09-22T21:53:52.814Z,100992.88
2022-09-22T21:56:42.815Z,100990.38
2022-09-22T21:59:31.326Z,100990.09
2022-09-22T22:02:19.724Z,100995.25
2022-09-22T22:05:08.511Z,100989.91
2022-09-22T22:07:57.005Z,100988.25
2022-09-22T22:10:46.877Z,100982.75
2022-09-22T22:13:38.630Z,100982.91
2022-09-22T22:16:31.232Z,100985.94
2022-09-22T22:19:21.844Z,100984.56
2022-09-22T22:22:11.095Z,100989.56
2022-09-22T22:24:59.487Z,100987.22
2022-09-22T22:27:47.920Z,100984.66
2022-09-22T22:30:41.918Z,100980.69
2022-09-22T22:33:31.425Z,100979.66
2022-09-22T22:36:20.074Z,100979.03
2022-09-22T22:39:08.815Z,100972.03
2022-09-22T22:41:57.508Z,100981.91
2022-09-22T22:44:45.917Z,100976.91
2022-09-22T22:47:35.660Z,100973.41
2022-09-22T22:50:25.595Z,100971.47
2022-09-22T22:53:14.978Z,100973.97
2022-09-22T22:56:05.435Z,100971.13
2022-09-22T22:58:54.105Z,100979.13
2022-09-22T23:01:44.542Z,100973.13
2022-09-22T23:04:34.488Z,100969.44
2022-09-22T23:07:22.852Z,100970.44
2022-09-22T23:10:11.373Z,100975.78
2022-09-22T23:13:01.221Z,100972.31
2022-09-22T23:15:51.249Z,100971.00
2022-09-22T23:18:42.192Z,100966.88
2022-09-22T23:21:34.205Z,100969.81
2022-09-22T23:24:22.725Z,100965.66
2022-09-22T23:27:12.276Z,100951.66
2022-09-22T23:30:00.696Z,100956.19
2022-09-22T23:32:49.071Z,100944.69
2022-09-22T23:35:37.519Z,100950.50
2022-09-22T23:38:29.341Z,100946.53
2022-09-22T23:41:18.059Z,100939.34
2022-09-22T23:44:07.408Z,100940.91
2022-09-22T23:46:56.087Z,100947.53
2022-09-22T23:49:44.812Z,100944.19
2022-09-22T23:52:33.259Z,100935.56
2022-09-22T23:55:23.096Z,100936.19
2022-09-22T23:58:12.101Z,100929.03
